Weather History for Payson, AZ

Change the Weather History Date:

Sunday, January 6, 2013

  Actual Average Record
Temperature  
Mean Temperature 40 °F -  
Max Temperature 48 °F 50 °F 60 °F (2012)
Min Temperature 32 °F 24 °F 32 °F (2013)
Degree Days  
Heating Degree Days 25    
Moisture  
Dew Point 14 °F    
Average Humidity 40    
Maximum Humidity 56    
Minimum Humidity 24    
Precipitation  
Precipitation 0.00 in - - ()
Sea Level Pressure  
Sea Level Pressure 30.14 in    
Wind  
Wind Speed 3 mph (SE)    
Max Wind Speed 12 mph    
Max Gust Speed 18 mph    
Visibility 10 miles    
Events      
Averages and records for this station are not official NWS values.
T = Trace of Precipitation, MM = Missing Value Source: NWS Daily Summary

Daily Weather History Graph

Daily Weather History Graph

Search for Another Location

Airport:

Trip Planner

Search our weather history database for the weather conditions in past years. The results will help you decide how hot, cold, wet, or windy it might be!

Date:

Astronomy

Jan. 06, 2013 Rise Set
Actual Time 7:32 AM MST 5:30 PM MST
Civil Twilight 7:04 AM MST 5:58 PM MST
Nautical Twilight 6:33 AM MST 6:29 PM MST
Astronomical Twilight 6:02 AM MST 7:00 PM MST
Moon 1:56 AM MST (1/6) 12:56 PM MST (1/6)
Length of Visible Light 10h 54m
Length of Day
9h 58m
Waning Crescent, 32% of the Moon is Illuminated
Jan 6
Waning Crescent
Jan 11
New
Jan 18
First Quarter
Jan 26
Full
Feb 3
Last Quarter

Hourly Weather History & Observations

Time (MST) Temp. Windchill Dew Point Humidity Pressure Visibility Wind Dir Wind Speed Gust Speed Precip Events Conditions
12:15 AM 35.6 °F - 10.4 °F 35% 30.26 in 10.0 mi Calm Calm - N/A   Clear
12:35 AM 35.6 °F - 10.4 °F 35% 30.26 in 10.0 mi Calm Calm - N/A   Clear
12:55 AM 33.8 °F - 12.2 °F 41% 30.26 in 10.0 mi Calm Calm - N/A   Clear
1:15 AM 33.8 °F 30.8 °F 12.2 °F 41% 30.25 in 10.0 mi SSE 3.5 mph - N/A   Clear
1:35 AM 35.6 °F 32.8 °F 12.2 °F 38% 30.25 in 10.0 mi East 3.5 mph - N/A   Clear
1:55 AM 35.6 °F - 10.4 °F 35% 30.26 in 10.0 mi Calm Calm - N/A   Clear
2:15 AM 35.6 °F 32.8 °F 10.4 °F 35% 30.25 in 10.0 mi East 3.5 mph - N/A   Clear
2:35 AM 33.8 °F - 10.4 °F 38% 30.25 in 10.0 mi Calm Calm - N/A   Clear
2:55 AM 35.6 °F - 10.4 °F 35% 30.24 in 10.0 mi Calm Calm - N/A   Clear
3:15 AM 32.0 °F - 8.6 °F 38% 30.24 in 10.0 mi Calm Calm - N/A   Clear
3:35 AM 33.8 °F - 10.4 °F 38% 30.24 in 10.0 mi Calm Calm - N/A   Clear
3:55 AM 32.0 °F 28.7 °F 10.4 °F 41% 30.24 in 10.0 mi SE 3.5 mph - N/A   Clear
4:15 AM 32.0 °F - 10.4 °F 41% 30.23 in 10.0 mi Calm Calm - N/A   Clear
4:35 AM 32.0 °F - 10.4 °F 41% 30.23 in 10.0 mi Calm Calm - N/A   Clear
4:55 AM 32.0 °F 27.5 °F 12.2 °F 44% 30.22 in 10.0 mi East 4.6 mph - N/A   Clear
5:15 AM 32.0 °F - 14.0 °F 48% 30.22 in 10.0 mi Calm Calm - N/A   Clear
5:35 AM 32.0 °F 28.7 °F 12.2 °F 44% 30.22 in 10.0 mi SSE 3.5 mph - N/A   Clear
5:55 AM 32.0 °F - 12.2 °F 44% 30.21 in 10.0 mi Calm Calm - N/A   Clear
6:15 AM 32.0 °F - 14.0 °F 48% 30.22 in 10.0 mi Calm Calm - N/A   Clear
6:35 AM 32.0 °F - 15.8 °F 51% 30.22 in 10.0 mi Calm Calm - N/A   Clear
6:55 AM 32.0 °F - 14.0 °F 48% 30.22 in 10.0 mi Calm Calm - N/A   Clear
7:15 AM 32.0 °F 26.4 °F 12.2 °F 44% 30.22 in 10.0 mi ESE 5.8 mph - N/A   Clear
7:35 AM 32.0 °F - 12.2 °F 44% 30.23 in 10.0 mi Calm Calm - N/A   Clear
7:55 AM 32.0 °F 27.5 °F 14.0 °F 48% 30.23 in 10.0 mi SSE 4.6 mph - N/A   Clear
8:35 AM 32.0 °F 28.7 °F 17.6 °F 55% 30.23 in 10.0 mi SSE 3.5 mph - N/A   Clear
8:55 AM 33.8 °F 30.8 °F 17.6 °F 52% 30.24 in 10.0 mi SSE 3.5 mph - N/A   Partly Cloudy
9:15 AM 33.8 °F 29.6 °F 17.6 °F 52% 30.23 in 10.0 mi SSE 4.6 mph - N/A   Partly Cloudy
9:35 AM 33.8 °F 30.8 °F 19.4 °F 56% 30.23 in 10.0 mi SSE 3.5 mph - N/A   Clear
9:55 AM 37.4 °F 32.8 °F 17.6 °F 45% 30.23 in 10.0 mi SE 5.8 mph - N/A   Clear
10:15 AM 39.2 °F 34.2 °F 12.2 °F 33% 30.23 in 10.0 mi ESE 6.9 mph - N/A   Clear
10:35 AM 42.8 °F 38.0 °F 14.0 °F 31% 30.22 in 10.0 mi SE 8.1 mph - N/A   Scattered Clouds
10:55 AM 42.8 °F 38.0 °F 12.2 °F 29% 30.22 in 10.0 mi SE 8.1 mph - N/A   Partly Cloudy
11:15 AM 42.8 °F 36.6 °F 12.2 °F 29% 30.21 in 10.0 mi SE 11.5 mph 18.4 mph N/A   Clear
11:35 AM 44.6 °F 39.2 °F 12.2 °F 27% 30.19 in 10.0 mi ESE 10.4 mph - N/A   Clear
11:55 AM 44.6 °F 40.2 °F 12.2 °F 27% 30.17 in 10.0 mi ESE 8.1 mph - N/A   Clear
12:15 PM 46.4 °F 41.5 °F 12.2 °F 25% 30.15 in 10.0 mi SE 10.4 mph - N/A   Clear
12:35 PM 46.4 °F 42.4 °F 14.0 °F 27% 30.14 in 10.0 mi SE 8.1 mph - N/A   Scattered Clouds
12:55 PM 48.2 °F - 12.2 °F 24% 30.12 in 10.0 mi SE 9.2 mph - N/A   Partly Cloudy
1:15 PM 48.2 °F - 14.0 °F 25% 30.10 in 10.0 mi SSE 9.2 mph - N/A   Partly Cloudy
1:55 PM 46.4 °F 43.5 °F 19.4 °F 34% 30.08 in 10.0 mi SSW 5.8 mph - N/A   Partly Cloudy
2:15 PM 46.4 °F 42.9 °F 17.6 °F 32% 30.08 in 10.0 mi South 6.9 mph - N/A   Partly Cloudy
2:35 PM 46.4 °F 43.5 °F 17.6 °F 32% 30.07 in 10.0 mi South 5.8 mph - N/A   Clear
2:55 PM 46.4 °F 42.9 °F 17.6 °F 32% 30.07 in 10.0 mi SSE 6.9 mph - N/A   Clear
3:15 PM 44.6 °F 40.2 °F 17.6 °F 34% 30.06 in 10.0 mi South 8.1 mph - N/A   Clear
3:55 PM 44.6 °F 39.7 °F 17.6 °F 34% 30.06 in 10.0 mi South 9.2 mph - N/A   Clear
4:15 PM 44.6 °F 41.4 °F 17.6 °F 34% 30.06 in 10.0 mi SSE 5.8 mph - N/A   Clear
4:35 PM 42.8 °F 38.6 °F 17.6 °F 36% 30.05 in 10.0 mi SSE 6.9 mph - N/A   Clear
4:55 PM 42.8 °F 40.1 °F 17.6 °F 36% 30.05 in 10.0 mi SSE 4.6 mph - N/A   Clear
5:15 PM 39.2 °F 35.0 °F 17.6 °F 42% 30.04 in 10.0 mi South 5.8 mph - N/A   Clear
5:35 PM 39.2 °F 35.9 °F 17.6 °F 42% 30.03 in 10.0 mi SSE 4.6 mph - N/A   Clear
5:55 PM 37.4 °F 33.8 °F 17.6 °F 45% 30.03 in 10.0 mi SSE 4.6 mph - N/A   Clear
6:35 PM 37.4 °F 34.9 °F 17.6 °F 45% 30.02 in 10.0 mi SE 3.5 mph - N/A   Clear
7:15 PM 35.6 °F - 17.6 °F 48% 30.01 in 10.0 mi Calm Calm - N/A   Clear
7:55 PM 35.6 °F 32.8 °F 15.8 °F 44% 30.01 in 10.0 mi ESE 3.5 mph - N/A   Clear
8:55 PM 35.6 °F - 15.8 °F 44% 30.00 in 10.0 mi Calm Calm - N/A   Clear
9:15 PM 35.6 °F 31.7 °F 14.0 °F 41% 29.99 in 10.0 mi ESE 4.6 mph - N/A   Clear
9:35 PM 32.0 °F - 17.6 °F 55% 29.99 in 10.0 mi Calm Calm - N/A   Clear
9:55 PM 33.8 °F - 14.0 °F 44% 29.99 in 10.0 mi Calm Calm - N/A   Clear
10:35 PM 33.8 °F 30.8 °F 15.8 °F 48% 29.97 in 10.0 mi ESE 3.5 mph - N/A   Clear
10:55 PM 33.8 °F 28.6 °F 17.6 °F 52% 29.97 in 10.0 mi East 5.8 mph - N/A   Clear
11:15 PM 32.0 °F 26.4 °F 17.6 °F 55% 29.97 in 10.0 mi ENE 5.8 mph - N/A   Clear
11:35 PM 32.0 °F 27.5 °F 17.6 °F 55% 29.97 in 10.0 mi East 4.6 mph - N/A   Clear
11:55 PM 32.0 °F 27.5 °F 17.6 °F 55% 29.97 in 10.0 mi East 4.6 mph - N/A   Clear